sensor_id;sensor_type;location;lat;lon;timestamp;temperature;humidity
40868;DHT22;26586;50.708;22.412;2023-07-09T00:00:49;25.00;50.10
40868;DHT22;26586;50.708;22.412;2023-07-09T00:03:35;25.00;50.20
40868;DHT22;26586;50.708;22.412;2023-07-09T00:06:01;25.00;50.20
40868;DHT22;26586;50.708;22.412;2023-07-09T00:08:29;25.00;50.20
40868;DHT22;26586;50.708;22.412;2023-07-09T00:10:56;24.90;50.20
40868;DHT22;26586;50.708;22.412;2023-07-09T00:13:24;24.90;50.20
40868;DHT22;26586;50.708;22.412;2023-07-09T00:15:51;24.90;50.20
40868;DHT22;26586;50.708;22.412;2023-07-09T00:18:18;24.80;50.20
40868;DHT22;26586;50.708;22.412;2023-07-09T00:20:46;24.90;50.20
40868;DHT22;26586;50.708;22.412;2023-07-09T00:23:14;24.80;50.20
40868;DHT22;26586;50.708;22.412;2023-07-09T00:25:43;24.80;50.20
40868;DHT22;26586;50.708;22.412;2023-07-09T00:28:15;24.80;50.20
40868;DHT22;26586;50.708;22.412;2023-07-09T00:30:42;24.70;50.20
40868;DHT22;26586;50.708;22.412;2023-07-09T00:33:11;24.70;50.20
40868;DHT22;26586;50.708;22.412;2023-07-09T00:35:50;24.70;50.20
40868;DHT22;26586;50.708;22.412;2023-07-09T00:38:21;24.70;50.20
40868;DHT22;26586;50.708;22.412;2023-07-09T00:41:05;24.70;50.20
40868;DHT22;26586;50.708;22.412;2023-07-09T00:43:34;24.60;50.10
40868;DHT22;26586;50.708;22.412;2023-07-09T00:49:26;24.60;50.20
40868;DHT22;26586;50.708;22.412;2023-07-09T00:51:46;24.50;50.20
40868;DHT22;26586;50.708;22.412;2023-07-09T00:54:20;24.60;50.80
40868;DHT22;26586;50.708;22.412;2023-07-09T00:56:50;24.50;50.20
40868;DHT22;26586;50.708;22.412;2023-07-09T00:59:21;24.50;50.20
40868;DHT22;26586;50.708;22.412;2023-07-09T01:01:50;24.50;50.20
40868;DHT22;26586;50.708;22.412;2023-07-09T01:04:19;24.50;50.30
40868;DHT22;26586;50.708;22.412;2023-07-09T01:06:53;24.40;50.20
40868;DHT22;26586;50.708;22.412;2023-07-09T01:09:24;24.40;50.20
40868;DHT22;26586;50.708;22.412;2023-07-09T01:11:51;24.40;50.30
40868;DHT22;26586;50.708;22.412;2023-07-09T01:14:23;24.40;50.30
40868;DHT22;26586;50.708;22.412;2023-07-09T01:17:01;24.30;50.20
40868;DHT22;26586;50.708;22.412;2023-07-09T01:19:30;24.30;50.20
40868;DHT22;26586;50.708;22.412;2023-07-09T01:21:58;24.30;50.30
40868;DHT22;26586;50.708;22.412;2023-07-09T01:27:26;24.30;50.20
40868;DHT22;26586;50.708;22.412;2023-07-09T01:29:54;24.30;50.30
40868;DHT22;26586;50.708;22.412;2023-07-09T01:32:21;24.30;50.30
40868;DHT22;26586;50.708;22.412;2023-07-09T01:34:51;24.30;50.30
40868;DHT22;26586;50.708;22.412;2023-07-09T01:37:24;24.20;50.30
40868;DHT22;26586;50.708;22.412;2023-07-09T01:39:51;24.20;50.30
40868;DHT22;26586;50.708;22.412;2023-07-09T01:42:20;24.20;53.30
40868;DHT22;26586;50.708;22.412;2023-07-09T01:44:50;24.20;52.70
40868;DHT22;26586;50.708;22.412;2023-07-09T01:47:17;24.10;52.20
40868;DHT22;26586;50.708;22.412;2023-07-09T01:49:44;24.10;51.90
40868;DHT22;26586;50.708;22.412;2023-07-09T01:52:14;24.10;51.70
40868;DHT22;26586;50.708;22.412;2023-07-09T01:54:42;24.10;51.70
40868;DHT22;26586;50.708;22.412;2023-07-09T01:57:22;24.10;51.50
40868;DHT22;26586;50.708;22.412;2023-07-09T01:59:53;24.10;51.50
40868;DHT22;26586;50.708;22.412;2023-07-09T02:02:23;24.10;51.40
40868;DHT22;26586;50.708;22.412;2023-07-09T02:04:54;24.00;51.30
40868;DHT22;26586;50.708;22.412;2023-07-09T02:07:22;24.00;51.30
40868;DHT22;26586;50.708;22.412;2023-07-09T02:09:49;24.00;51.20
40868;DHT22;26586;50.708;22.412;2023-07-09T02:12:16;24.00;51.20
40868;DHT22;26586;50.708;22.412;2023-07-09T02:14:44;24.00;51.90
40868;DHT22;26586;50.708;22.412;2023-07-09T02:17:11;23.90;51.10
40868;DHT22;26586;50.708;22.412;2023-07-09T02:19:38;23.90;51.10
40868;DHT22;26586;50.708;22.412;2023-07-09T02:22:05;23.90;51.10
40868;DHT22;26586;50.708;22.412;2023-07-09T02:24:32;23.90;51.10
40868;DHT22;26586;50.708;22.412;2023-07-09T02:27:01;23.90;51.20
40868;DHT22;26586;50.708;22.412;2023-07-09T02:29:29;23.80;51.10
40868;DHT22;26586;50.708;22.412;2023-07-09T02:31:57;23.80;51.20
40868;DHT22;26586;50.708;22.412;2023-07-09T02:34:27;23.80;51.20
40868;DHT22;26586;50.708;22.412;2023-07-09T02:36:55;23.80;51.20
40868;DHT22;26586;50.708;22.412;2023-07-09T02:39:23;23.70;51.20
40868;DHT22;26586;50.708;22.412;2023-07-09T02:41:49;23.70;51.10
40868;DHT22;26586;50.708;22.412;2023-07-09T02:44:16;23.70;51.10
40868;DHT22;26586;50.708;22.412;2023-07-09T02:46:42;23.70;51.20
40868;DHT22;26586;50.708;22.412;2023-07-09T02:49:09;23.70;51.20
40868;DHT22;26586;50.708;22.412;2023-07-09T02:51:36;23.70;51.10
40868;DHT22;26586;50.708;22.412;2023-07-09T02:54:03;23.70;51.00
40868;DHT22;26586;50.708;22.412;2023-07-09T02:56:30;23.60;51.10
40868;DHT22;26586;50.708;22.412;2023-07-09T02:58:56;23.60;51.00
40868;DHT22;26586;50.708;22.412;2023-07-09T03:01:23;23.60;51.00
40868;DHT22;26586;50.708;22.412;2023-07-09T03:03:52;23.60;51.00
40868;DHT22;26586;50.708;22.412;2023-07-09T03:06:22;23.60;51.00
40868;DHT22;26586;50.708;22.412;2023-07-09T03:08:49;23.50;50.90
40868;DHT22;26586;50.708;22.412;2023-07-09T03:11:16;23.50;50.90
40868;DHT22;26586;50.708;22.412;2023-07-09T03:13:43;23.50;51.00
40868;DHT22;26586;50.708;22.412;2023-07-09T03:16:10;23.50;51.00
40868;DHT22;26586;50.708;22.412;2023-07-09T03:18:36;23.50;51.00
40868;DHT22;26586;50.708;22.412;2023-07-09T03:21:05;23.50;51.70
40868;DHT22;26586;50.708;22.412;2023-07-09T03:23:32;23.40;51.00
40868;DHT22;26586;50.708;22.412;2023-07-09T03:25:58;23.40;51.10
40868;DHT22;26586;50.708;22.412;2023-07-09T03:28:26;23.40;51.10
40868;DHT22;26586;50.708;22.412;2023-07-09T03:30:54;23.40;51.30
40868;DHT22;26586;50.708;22.412;2023-07-09T03:33:21;23.40;51.40
40868;DHT22;26586;50.708;22.412;2023-07-09T03:35:47;23.40;51.40
40868;DHT22;26586;50.708;22.412;2023-07-09T03:38:13;23.30;51.30
40868;DHT22;26586;50.708;22.412;2023-07-09T03:40:40;23.40;51.40
40868;DHT22;26586;50.708;22.412;2023-07-09T03:43:08;23.30;51.30
40868;DHT22;26586;50.708;22.412;2023-07-09T03:45:35;23.30;51.40
40868;DHT22;26586;50.708;22.412;2023-07-09T03:48:03;23.30;51.30
40868;DHT22;26586;50.708;22.412;2023-07-09T03:50:30;23.30;51.60
40868;DHT22;26586;50.708;22.412;2023-07-09T03:52:56;23.30;51.60
40868;DHT22;26586;50.708;22.412;2023-07-09T03:55:22;23.30;51.20
40868;DHT22;26586;50.708;22.412;2023-07-09T03:57:55;23.30;51.30
40868;DHT22;26586;50.708;22.412;2023-07-09T04:00:22;23.30;53.70
40868;DHT22;26586;50.708;22.412;2023-07-09T04:02:49;23.30;54.20
40868;DHT22;26586;50.708;22.412;2023-07-09T04:05:15;23.30;54.50
40868;DHT22;26586;50.708;22.412;2023-07-09T04:07:41;23.30;54.60
40868;DHT22;26586;50.708;22.412;2023-07-09T04:10:07;23.30;55.00
40868;DHT22;26586;50.708;22.412;2023-07-09T04:12:34;23.30;55.10
40868;DHT22;26586;50.708;22.412;2023-07-09T04:15:00;23.30;55.50
40868;DHT22;26586;50.708;22.412;2023-07-09T04:17:27;23.30;55.80
40868;DHT22;26586;50.708;22.412;2023-07-09T04:19:53;23.30;56.10
40868;DHT22;26586;50.708;22.412;2023-07-09T04:22:19;23.30;56.30
40868;DHT22;26586;50.708;22.412;2023-07-09T04:24:48;23.30;56.70
40868;DHT22;26586;50.708;22.412;2023-07-09T04:27:16;23.30;55.80
40868;DHT22;26586;50.708;22.412;2023-07-09T04:29:42;23.40;55.80
40868;DHT22;26586;50.708;22.412;2023-07-09T04:32:12;23.40;55.30
40868;DHT22;26586;50.708;22.412;2023-07-09T04:34:39;23.40;55.10
40868;DHT22;26586;50.708;22.412;2023-07-09T04:37:11;23.40;55.00
40868;DHT22;26586;50.708;22.412;2023-07-09T04:39:42;23.40;54.80
40868;DHT22;26586;50.708;22.412;2023-07-09T04:42:12;23.50;54.90
40868;DHT22;26586;50.708;22.412;2023-07-09T04:44:38;23.50;54.90
40868;DHT22;26586;50.708;22.412;2023-07-09T04:47:05;23.50;54.90
40868;DHT22;26586;50.708;22.412;2023-07-09T04:49:32;23.60;54.90
40868;DHT22;26586;50.708;22.412;2023-07-09T04:51:59;23.60;54.70
40868;DHT22;26586;50.708;22.412;2023-07-09T04:54:26;23.60;54.70
40868;DHT22;26586;50.708;22.412;2023-07-09T04:56:52;23.60;54.80
40868;DHT22;26586;50.708;22.412;2023-07-09T04:59:19;23.70;54.80
40868;DHT22;26586;50.708;22.412;2023-07-09T05:01:45;23.70;54.90
40868;DHT22;26586;50.708;22.412;2023-07-09T05:04:12;23.70;54.80
40868;DHT22;26586;50.708;22.412;2023-07-09T05:06:38;23.70;54.70
40868;DHT22;26586;50.708;22.412;2023-07-09T05:09:05;23.80;54.90
40868;DHT22;26586;50.708;22.412;2023-07-09T05:11:32;23.80;54.70
40868;DHT22;26586;50.708;22.412;2023-07-09T05:13:59;23.80;54.60
40868;DHT22;26586;50.708;22.412;2023-07-09T05:16:25;23.90;54.30
40868;DHT22;26586;50.708;22.412;2023-07-09T05:18:51;23.90;54.10
40868;DHT22;26586;50.708;22.412;2023-07-09T05:21:18;24.00;53.80
40868;DHT22;26586;50.708;22.412;2023-07-09T05:23:44;24.00;53.60
40868;DHT22;26586;50.708;22.412;2023-07-09T05:26:11;24.10;53.40
40868;DHT22;26586;50.708;22.412;2023-07-09T05:28:37;24.10;53.30
40868;DHT22;26586;50.708;22.412;2023-07-09T05:31:06;24.20;53.20
40868;DHT22;26586;50.708;22.412;2023-07-09T05:33:33;24.20;53.20
40868;DHT22;26586;50.708;22.412;2023-07-09T05:35:59;24.30;53.10
40868;DHT22;26586;50.708;22.412;2023-07-09T05:38:25;24.30;53.10
40868;DHT22;26586;50.708;22.412;2023-07-09T05:41:02;24.40;53.10
40868;DHT22;26586;50.708;22.412;2023-07-09T05:43:29;24.40;53.00
40868;DHT22;26586;50.708;22.412;2023-07-09T05:45:56;24.50;53.10
40868;DHT22;26586;50.708;22.412;2023-07-09T05:48:22;24.50;53.00
40868;DHT22;26586;50.708;22.412;2023-07-09T05:50:52;24.50;53.00
40868;DHT22;26586;50.708;22.412;2023-07-09T05:53:18;24.60;53.00
40868;DHT22;26586;50.708;22.412;2023-07-09T05:55:45;24.70;53.10
40868;DHT22;26586;50.708;22.412;2023-07-09T05:58:11;24.70;53.00
40868;DHT22;26586;50.708;22.412;2023-07-09T06:00:37;24.80;53.10
40868;DHT22;26586;50.708;22.412;2023-07-09T06:03:07;24.80;53.10
40868;DHT22;26586;50.708;22.412;2023-07-09T06:05:34;24.90;53.10
40868;DHT22;26586;50.708;22.412;2023-07-09T06:08:00;25.00;53.10
40868;DHT22;26586;50.708;22.412;2023-07-09T06:10:26;25.10;53.10
40868;DHT22;26586;50.708;22.412;2023-07-09T06:12:52;25.20;53.20
40868;DHT22;26586;50.708;22.412;2023-07-09T06:15:19;25.20;53.30
40868;DHT22;26586;50.708;22.412;2023-07-09T06:17:45;25.30;53.30
40868;DHT22;26586;50.708;22.412;2023-07-09T06:20:12;25.30;53.30
40868;DHT22;26586;50.708;22.412;2023-07-09T06:22:38;25.40;53.30
40868;DHT22;26586;50.708;22.412;2023-07-09T06:25:04;25.40;53.20
40868;DHT22;26586;50.708;22.412;2023-07-09T06:27:30;25.50;53.20
40868;DHT22;26586;50.708;22.412;2023-07-09T06:29:57;25.60;53.40
40868;DHT22;26586;50.708;22.412;2023-07-09T06:32:23;25.60;53.40
40868;DHT22;26586;50.708;22.412;2023-07-09T06:34:49;25.60;53.40
40868;DHT22;26586;50.708;22.412;2023-07-09T06:37:15;25.70;53.50
40868;DHT22;26586;50.708;22.412;2023-07-09T06:39:42;25.70;53.50
40868;DHT22;26586;50.708;22.412;2023-07-09T06:42:08;25.80;53.50
40868;DHT22;26586;50.708;22.412;2023-07-09T06:44:34;25.90;53.60
40868;DHT22;26586;50.708;22.412;2023-07-09T06:47:00;25.90;53.50
40868;DHT22;26586;50.708;22.412;2023-07-09T06:49:28;26.00;53.60
40868;DHT22;26586;50.708;22.412;2023-07-09T06:51:54;26.10;53.60
40868;DHT22;26586;50.708;22.412;2023-07-09T06:54:20;26.10;53.60
40868;DHT22;26586;50.708;22.412;2023-07-09T06:56:46;26.20;53.70
40868;DHT22;26586;50.708;22.412;2023-07-09T06:59:13;26.30;53.70
40868;DHT22;26586;50.708;22.412;2023-07-09T07:01:39;26.30;53.70
40868;DHT22;26586;50.708;22.412;2023-07-09T07:04:06;26.40;53.80
40868;DHT22;26586;50.708;22.412;2023-07-09T07:06:32;26.40;53.80
40868;DHT22;26586;50.708;22.412;2023-07-09T07:08:58;26.50;53.90
40868;DHT22;26586;50.708;22.412;2023-07-09T07:11:24;26.60;53.90
40868;DHT22;26586;50.708;22.412;2023-07-09T07:13:56;26.60;53.90
40868;DHT22;26586;50.708;22.412;2023-07-09T07:16:23;26.70;53.90
40868;DHT22;26586;50.708;22.412;2023-07-09T07:18:49;26.70;53.80
40868;DHT22;26586;50.708;22.412;2023-07-09T07:21:16;26.80;53.90
40868;DHT22;26586;50.708;22.412;2023-07-09T07:23:43;26.90;53.90
40868;DHT22;26586;50.708;22.412;2023-07-09T07:26:09;26.90;53.90
40868;DHT22;26586;50.708;22.412;2023-07-09T07:28:35;27.00;53.80
40868;DHT22;26586;50.708;22.412;2023-07-09T07:31:07;27.10;53.90
40868;DHT22;26586;50.708;22.412;2023-07-09T07:33:34;27.10;53.80
40868;DHT22;26586;50.708;22.412;2023-07-09T07:36:00;27.10;54.30
40868;DHT22;26586;50.708;22.412;2023-07-09T07:38:27;27.20;53.40
40868;DHT22;26586;50.708;22.412;2023-07-09T07:40:53;27.30;53.20
40868;DHT22;26586;50.708;22.412;2023-07-09T07:43:19;27.30;53.20
40868;DHT22;26586;50.708;22.412;2023-07-09T07:45:47;27.40;53.20
40868;DHT22;26586;50.708;22.412;2023-07-09T07:48:14;27.40;53.00
40868;DHT22;26586;50.708;22.412;2023-07-09T07:50:40;27.50;53.10
40868;DHT22;26586;50.708;22.412;2023-07-09T07:53:08;27.50;52.90
40868;DHT22;26586;50.708;22.412;2023-07-09T07:55:36;27.60;53.10
40868;DHT22;26586;50.708;22.412;2023-07-09T07:58:03;27.60;53.10
40868;DHT22;26586;50.708;22.412;2023-07-09T08:00:30;27.70;53.20
40868;DHT22;26586;50.708;22.412;2023-07-09T08:02:57;27.80;53.20
40868;DHT22;26586;50.708;22.412;2023-07-09T08:05:23;27.80;52.80
40868;DHT22;26586;50.708;22.412;2023-07-09T08:07:50;27.90;52.80
40868;DHT22;26586;50.708;22.412;2023-07-09T08:10:17;27.90;52.60
40868;DHT22;26586;50.708;22.412;2023-07-09T08:12:44;28.00;52.60
40868;DHT22;26586;50.708;22.412;2023-07-09T08:15:10;28.00;52.40
40868;DHT22;26586;50.708;22.412;2023-07-09T08:17:37;28.10;52.30
40868;DHT22;26586;50.708;22.412;2023-07-09T08:20:03;28.20;52.20
40868;DHT22;26586;50.708;22.412;2023-07-09T08:22:30;28.20;52.00
40868;DHT22;26586;50.708;22.412;2023-07-09T08:24:56;28.20;51.80
40868;DHT22;26586;50.708;22.412;2023-07-09T08:27:23;28.30;51.40
40868;DHT22;26586;50.708;22.412;2023-07-09T08:29:49;28.20;51.00
40868;DHT22;26586;50.708;22.412;2023-07-09T08:32:16;28.30;51.20
40868;DHT22;26586;50.708;22.412;2023-07-09T08:34:42;28.40;51.10
40868;DHT22;26586;50.708;22.412;2023-07-09T08:37:09;28.40;51.20
40868;DHT22;26586;50.708;22.412;2023-07-09T08:39:35;28.40;50.80
40868;DHT22;26586;50.708;22.412;2023-07-09T08:42:09;28.40;50.90
40868;DHT22;26586;50.708;22.412;2023-07-09T08:44:48;28.50;50.70
40868;DHT22;26586;50.708;22.412;2023-07-09T08:47:43;28.50;50.70
40868;DHT22;26586;50.708;22.412;2023-07-09T08:50:22;28.60;50.60
40868;DHT22;26586;50.708;22.412;2023-07-09T08:52:51;28.60;50.70
40868;DHT22;26586;50.708;22.412;2023-07-09T08:55:21;28.70;50.70
40868;DHT22;26586;50.708;22.412;2023-07-09T08:57:56;28.70;50.10
40868;DHT22;26586;50.708;22.412;2023-07-09T09:01:01;28.70;49.60
40868;DHT22;26586;50.708;22.412;2023-07-09T09:06:20;28.80;49.80
40868;DHT22;26586;50.708;22.412;2023-07-09T09:11:23;28.90;49.70
40868;DHT22;26586;50.708;22.412;2023-07-09T09:13:55;29.00;49.80
40868;DHT22;26586;50.708;22.412;2023-07-09T09:16:34;29.00;49.60
40868;DHT22;26586;50.708;22.412;2023-07-09T09:19:02;29.00;49.60
40868;DHT22;26586;50.708;22.412;2023-07-09T09:21:36;29.10;49.40
40868;DHT22;26586;50.708;22.412;2023-07-09T09:27:08;29.10;50.00
40868;DHT22;26586;50.708;22.412;2023-07-09T09:29:35;29.20;48.90
40868;DHT22;26586;50.708;22.412;2023-07-09T09:32:34;29.00;48.90
40868;DHT22;26586;50.708;22.412;2023-07-09T09:34:56;29.00;48.90
40868;DHT22;26586;50.708;22.412;2023-07-09T09:37:25;29.00;49.20
40868;DHT22;26586;50.708;22.412;2023-07-09T09:39:52;29.00;49.40
40868;DHT22;26586;50.708;22.412;2023-07-09T09:42:18;29.10;49.30
40868;DHT22;26586;50.708;22.412;2023-07-09T09:44:46;29.00;48.60
40868;DHT22;26586;50.708;22.412;2023-07-09T09:47:15;29.00;48.80
40868;DHT22;26586;50.708;22.412;2023-07-09T09:49:43;29.00;49.00
40868;DHT22;26586;50.708;22.412;2023-07-09T09:52:13;29.00;48.90
40868;DHT22;26586;50.708;22.412;2023-07-09T09:54:43;29.10;49.10
40868;DHT22;26586;50.708;22.412;2023-07-09T09:57:24;29.00;48.80
40868;DHT22;26586;50.708;22.412;2023-07-09T09:59:54;29.00;48.90
40868;DHT22;26586;50.708;22.412;2023-07-09T10:02:24;29.00;48.80
40868;DHT22;26586;50.708;22.412;2023-07-09T10:04:51;29.00;48.90
40868;DHT22;26586;50.708;22.412;2023-07-09T10:07:22;29.00;48.90
40868;DHT22;26586;50.708;22.412;2023-07-09T10:09:54;29.00;48.90
40868;DHT22;26586;50.708;22.412;2023-07-09T10:26:01;29.30;48.20
40868;DHT22;26586;50.708;22.412;2023-07-09T10:31:20;29.40;47.30
40868;DHT22;26586;50.708;22.412;2023-07-09T10:39:49;29.40;47.10
40868;DHT22;26586;50.708;22.412;2023-07-09T10:45:31;29.40;47.00
40868;DHT22;26586;50.708;22.412;2023-07-09T10:48:45;29.50;47.00
40868;DHT22;26586;50.708;22.412;2023-07-09T10:50:53;29.50;46.40
40868;DHT22;26586;50.708;22.412;2023-07-09T10:53:43;29.40;46.70
40868;DHT22;26586;50.708;22.412;2023-07-09T10:56:22;29.40;46.70
40868;DHT22;26586;50.708;22.412;2023-07-09T11:01:45;29.50;46.40
40868;DHT22;26586;50.708;22.412;2023-07-09T11:04:37;29.50;47.00
40868;DHT22;26586;50.708;22.412;2023-07-09T11:07:11;29.60;46.90
40868;DHT22;26586;50.708;22.412;2023-07-09T11:09:46;29.60;46.70
40868;DHT22;26586;50.708;22.412;2023-07-09T11:12:19;29.40;46.50
40868;DHT22;26586;50.708;22.412;2023-07-09T11:14:54;29.40;46.50
40868;DHT22;26586;50.708;22.412;2023-07-09T11:17:22;29.40;46.20
40868;DHT22;26586;50.708;22.412;2023-07-09T11:19:55;29.20;46.40
40868;DHT22;26586;50.708;22.412;2023-07-09T11:22:37;29.20;46.50
40868;DHT22;26586;50.708;22.412;2023-07-09T11:25:12;29.20;46.50
40868;DHT22;26586;50.708;22.412;2023-07-09T11:27:50;29.10;46.10
40868;DHT22;26586;50.708;22.412;2023-07-09T11:30:28;29.20;46.50
40868;DHT22;26586;50.708;22.412;2023-07-09T11:33:04;29.30;46.50
40868;DHT22;26586;50.708;22.412;2023-07-09T11:35:49;29.40;46.30
40868;DHT22;26586;50.708;22.412;2023-07-09T11:38:22;29.40;46.40
40868;DHT22;26586;50.708;22.412;2023-07-09T11:40:54;29.50;46.10
40868;DHT22;26586;50.708;22.412;2023-07-09T11:43:34;29.30;46.00
40868;DHT22;26586;50.708;22.412;2023-07-09T11:46:33;29.20;46.30
40868;DHT22;26586;50.708;22.412;2023-07-09T11:49:01;29.30;46.60
40868;DHT22;26586;50.708;22.412;2023-07-09T11:51:41;29.40;46.90
40868;DHT22;26586;50.708;22.412;2023-07-09T11:54:12;29.50;46.70
40868;DHT22;26586;50.708;22.412;2023-07-09T11:56:41;29.40;46.50
40868;DHT22;26586;50.708;22.412;2023-07-09T11:59:11;29.40;46.20
40868;DHT22;26586;50.708;22.412;2023-07-09T12:01:44;29.50;46.60
40868;DHT22;26586;50.708;22.412;2023-07-09T12:04:19;29.50;46.70
40868;DHT22;26586;50.708;22.412;2023-07-09T12:06:47;29.60;46.60
40868;DHT22;26586;50.708;22.412;2023-07-09T12:09:19;29.60;46.00
40868;DHT22;26586;50.708;22.412;2023-07-09T12:11:49;29.60;46.30
40868;DHT22;26586;50.708;22.412;2023-07-09T12:14:18;29.60;46.30
40868;DHT22;26586;50.708;22.412;2023-07-09T12:16:47;29.70;46.20
40868;DHT22;26586;50.708;22.412;2023-07-09T12:19:17;29.70;46.30
40868;DHT22;26586;50.708;22.412;2023-07-09T12:21:45;29.80;46.20
40868;DHT22;26586;50.708;22.412;2023-07-09T12:24:21;29.80;46.30
40868;DHT22;26586;50.708;22.412;2023-07-09T12:27:01;29.80;46.10
40868;DHT22;26586;50.708;22.412;2023-07-09T12:29:28;29.80;46.10
40868;DHT22;26586;50.708;22.412;2023-07-09T12:32:00;29.80;46.40
40868;DHT22;26586;50.708;22.412;2023-07-09T12:34:31;29.90;46.40
40868;DHT22;26586;50.708;22.412;2023-07-09T12:36:58;29.90;46.90
40868;DHT22;26586;50.708;22.412;2023-07-09T12:39:26;29.90;46.90
40868;DHT22;26586;50.708;22.412;2023-07-09T12:41:59;29.90;46.80
40868;DHT22;26586;50.708;22.412;2023-07-09T12:44:26;29.90;47.60
40868;DHT22;26586;50.708;22.412;2023-07-09T12:46:54;29.80;46.80
40868;DHT22;26586;50.708;22.412;2023-07-09T12:49:26;29.80;47.20
40868;DHT22;26586;50.708;22.412;2023-07-09T12:52:03;29.80;47.60
40868;DHT22;26586;50.708;22.412;2023-07-09T12:54:34;29.80;47.50
40868;DHT22;26586;50.708;22.412;2023-07-09T12:57:09;29.90;47.60
40868;DHT22;26586;50.708;22.412;2023-07-09T12:59:40;29.90;47.00
40868;DHT22;26586;50.708;22.412;2023-07-09T13:02:17;29.90;47.30
40868;DHT22;26586;50.708;22.412;2023-07-09T13:04:44;29.90;47.30
40868;DHT22;26586;50.708;22.412;2023-07-09T13:07:35;29.90;47.10
40868;DHT22;26586;50.708;22.412;2023-07-09T13:10:40;29.90;47.00
40868;DHT22;26586;50.708;22.412;2023-07-09T13:13:13;29.80;46.80
40868;DHT22;26586;50.708;22.412;2023-07-09T13:15:42;29.70;47.30
40868;DHT22;26586;50.708;22.412;2023-07-09T13:18:13;29.80;47.30
40868;DHT22;26586;50.708;22.412;2023-07-09T13:20:44;29.70;47.20
40868;DHT22;26586;50.708;22.412;2023-07-09T13:23:16;29.80;47.60
40868;DHT22;26586;50.708;22.412;2023-07-09T13:25:42;29.70;46.90
40868;DHT22;26586;50.708;22.412;2023-07-09T13:28:29;29.70;47.30
40868;DHT22;26586;50.708;22.412;2023-07-09T13:31:08;29.70;47.50
40868;DHT22;26586;50.708;22.412;2023-07-09T13:33:36;29.80;47.60
40868;DHT22;26586;50.708;22.412;2023-07-09T13:36:05;29.80;47.60
40868;DHT22;26586;50.708;22.412;2023-07-09T13:38:33;29.80;47.40
40868;DHT22;26586;50.708;22.412;2023-07-09T13:41:01;29.80;46.90
40868;DHT22;26586;50.708;22.412;2023-07-09T13:43:37;29.80;47.00
40868;DHT22;26586;50.708;22.412;2023-07-09T13:46:07;29.70;47.20
40868;DHT22;26586;50.708;22.412;2023-07-09T13:48:34;29.70;47.20
40868;DHT22;26586;50.708;22.412;2023-07-09T13:51:05;29.70;47.10
40868;DHT22;26586;50.708;22.412;2023-07-09T13:53:36;29.70;46.80
40868;DHT22;26586;50.708;22.412;2023-07-09T13:56:03;29.60;47.00
40868;DHT22;26586;50.708;22.412;2023-07-09T13:58:29;29.60;47.00
40868;DHT22;26586;50.708;22.412;2023-07-09T14:00:58;29.60;47.00
40868;DHT22;26586;50.708;22.412;2023-07-09T14:03:33;29.60;47.00
40868;DHT22;26586;50.708;22.412;2023-07-09T14:05:59;29.70;46.90
40868;DHT22;26586;50.708;22.412;2023-07-09T14:08:26;29.70;47.10
40868;DHT22;26586;50.708;22.412;2023-07-09T14:10:52;29.70;46.90
40868;DHT22;26586;50.708;22.412;2023-07-09T14:13:21;29.80;47.10
40868;DHT22;26586;50.708;22.412;2023-07-09T14:15:48;29.70;46.40
40868;DHT22;26586;50.708;22.412;2023-07-09T14:18:19;29.70;46.50
40868;DHT22;26586;50.708;22.412;2023-07-09T14:20:46;29.60;46.90
40868;DHT22;26586;50.708;22.412;2023-07-09T14:23:14;29.50;46.50
40868;DHT22;26586;50.708;22.412;2023-07-09T14:25:42;29.50;46.80
40868;DHT22;26586;50.708;22.412;2023-07-09T14:28:11;29.60;47.10
40868;DHT22;26586;50.708;22.412;2023-07-09T14:30:38;29.50;46.90
40868;DHT22;26586;50.708;22.412;2023-07-09T14:33:04;29.60;47.10
40868;DHT22;26586;50.708;22.412;2023-07-09T14:35:30;29.50;47.00
40868;DHT22;26586;50.708;22.412;2023-07-09T14:37:57;29.60;46.90
40868;DHT22;26586;50.708;22.412;2023-07-09T14:40:25;29.60;47.10
40868;DHT22;26586;50.708;22.412;2023-07-09T14:42:51;29.60;47.10
40868;DHT22;26586;50.708;22.412;2023-07-09T14:45:19;29.70;47.30
40868;DHT22;26586;50.708;22.412;2023-07-09T14:47:46;29.70;47.10
40868;DHT22;26586;50.708;22.412;2023-07-09T14:50:12;29.60;46.80
40868;DHT22;26586;50.708;22.412;2023-07-09T14:52:41;29.60;46.60
40868;DHT22;26586;50.708;22.412;2023-07-09T14:55:16;29.60;46.70
40868;DHT22;26586;50.708;22.412;2023-07-09T14:57:43;29.60;47.10
40868;DHT22;26586;50.708;22.412;2023-07-09T15:00:13;29.60;46.80
40868;DHT22;26586;50.708;22.412;2023-07-09T15:02:42;29.60;47.20
40868;DHT22;26586;50.708;22.412;2023-07-09T15:05:17;29.60;47.20
40868;DHT22;26586;50.708;22.412;2023-07-09T15:07:43;29.60;47.10
40868;DHT22;26586;50.708;22.412;2023-07-09T15:10:22;29.60;46.80
40868;DHT22;26586;50.708;22.412;2023-07-09T15:12:50;29.50;46.40
40868;DHT22;26586;50.708;22.412;2023-07-09T15:15:20;29.40;46.50
40868;DHT22;26586;50.708;22.412;2023-07-09T15:17:48;29.30;46.90
40868;DHT22;26586;50.708;22.412;2023-07-09T15:20:16;29.30;47.20
40868;DHT22;26586;50.708;22.412;2023-07-09T15:22:45;29.30;47.20
40868;DHT22;26586;50.708;22.412;2023-07-09T15:25:20;29.30;47.40
40868;DHT22;26586;50.708;22.412;2023-07-09T15:27:47;29.40;47.50
40868;DHT22;26586;50.708;22.412;2023-07-09T15:32:44;29.30;47.50
40868;DHT22;26586;50.708;22.412;2023-07-09T15:35:10;29.30;47.60
40868;DHT22;26586;50.708;22.412;2023-07-09T15:37:36;29.30;47.60
40868;DHT22;26586;50.708;22.412;2023-07-09T15:40:03;29.30;48.20
40868;DHT22;26586;50.708;22.412;2023-07-09T15:42:29;29.30;47.90
40868;DHT22;26586;50.708;22.412;2023-07-09T15:44:56;29.30;47.40
40868;DHT22;26586;50.708;22.412;2023-07-09T15:47:25;29.20;46.10
40868;DHT22;26586;50.708;22.412;2023-07-09T15:49:53;29.30;46.60
40868;DHT22;26586;50.708;22.412;2023-07-09T15:52:20;29.30;45.90
40868;DHT22;26586;50.708;22.412;2023-07-09T15:54:47;29.30;45.50
40868;DHT22;26586;50.708;22.412;2023-07-09T15:57:16;29.30;46.00
40868;DHT22;26586;50.708;22.412;2023-07-09T15:59:43;29.30;46.10
40868;DHT22;26586;50.708;22.412;2023-07-09T16:02:12;29.30;46.10
40868;DHT22;26586;50.708;22.412;2023-07-09T16:04:41;29.30;45.80
40868;DHT22;26586;50.708;22.412;2023-07-09T16:07:07;29.30;45.70
40868;DHT22;26586;50.708;22.412;2023-07-09T16:09:34;29.20;45.40
40868;DHT22;26586;50.708;22.412;2023-07-09T16:12:00;29.20;45.50
40868;DHT22;26586;50.708;22.412;2023-07-09T16:14:31;29.20;45.60